sensor_id;sensor_type;location;lat;lon;timestamp;temperature;humidity
15394;DHT22;7795;47.986;11.868;2023-04-15T00:00:53;9.20;78.00
15394;DHT22;7795;47.986;11.868;2023-04-15T00:03:19;9.20;78.00
15394;DHT22;7795;47.986;11.868;2023-04-15T00:05:45;9.20;78.00
15394;DHT22;7795;47.986;11.868;2023-04-15T00:08:11;9.20;78.00
15394;DHT22;7795;47.986;11.868;2023-04-15T00:10:38;9.20;78.00
15394;DHT22;7795;47.986;11.868;2023-04-15T00:13:04;9.20;78.00
15394;DHT22;7795;47.986;11.868;2023-04-15T00:15:30;9.20;77.90
15394;DHT22;7795;47.986;11.868;2023-04-15T00:17:56;9.20;78.00
15394;DHT22;7795;47.986;11.868;2023-04-15T00:20:22;9.20;78.00
15394;DHT22;7795;47.986;11.868;2023-04-15T00:22:48;9.20;78.10
15394;DHT22;7795;47.986;11.868;2023-04-15T00:25:13;9.10;78.00
15394;DHT22;7795;47.986;11.868;2023-04-15T00:27:41;9.10;78.10
15394;DHT22;7795;47.986;11.868;2023-04-15T00:30:07;9.10;78.10
15394;DHT22;7795;47.986;11.868;2023-04-15T00:32:34;9.10;78.10
15394;DHT22;7795;47.986;11.868;2023-04-15T00:35:00;9.10;78.10
15394;DHT22;7795;47.986;11.868;2023-04-15T00:37:25;9.10;78.10
15394;DHT22;7795;47.986;11.868;2023-04-15T00:39:51;9.10;78.10
15394;DHT22;7795;47.986;11.868;2023-04-15T00:42:17;9.10;78.20
15394;DHT22;7795;47.986;11.868;2023-04-15T00:44:45;9.10;78.10
15394;DHT22;7795;47.986;11.868;2023-04-15T00:47:11;9.10;78.20
15394;DHT22;7795;47.986;11.868;2023-04-15T00:49:37;9.00;78.20
15394;DHT22;7795;47.986;11.868;2023-04-15T00:52:03;9.00;78.20
15394;DHT22;7795;47.986;11.868;2023-04-15T00:54:28;9.00;78.20
15394;DHT22;7795;47.986;11.868;2023-04-15T00:56:54;9.00;78.20
15394;DHT22;7795;47.986;11.868;2023-04-15T00:59:21;9.00;78.20
15394;DHT22;7795;47.986;11.868;2023-04-15T01:01:48;9.00;78.20
15394;DHT22;7795;47.986;11.868;2023-04-15T01:04:15;9.00;78.20
15394;DHT22;7795;47.986;11.868;2023-04-15T01:06:40;9.00;78.30
15394;DHT22;7795;47.986;11.868;2023-04-15T01:09:06;9.00;78.40
15394;DHT22;7795;47.986;11.868;2023-04-15T01:11:32;9.00;78.40
15394;DHT22;7795;47.986;11.868;2023-04-15T01:14:01;9.00;78.40
15394;DHT22;7795;47.986;11.868;2023-04-15T01:16:27;9.00;78.40
15394;DHT22;7795;47.986;11.868;2023-04-15T01:18:54;8.90;78.40
15394;DHT22;7795;47.986;11.868;2023-04-15T01:21:21;9.00;78.50
15394;DHT22;7795;47.986;11.868;2023-04-15T01:23:48;9.00;78.50
15394;DHT22;7795;47.986;11.868;2023-04-15T01:26:16;8.90;78.40
15394;DHT22;7795;47.986;11.868;2023-04-15T01:28:42;8.90;78.50
15394;DHT22;7795;47.986;11.868;2023-04-15T01:31:09;9.00;78.50
15394;DHT22;7795;47.986;11.868;2023-04-15T01:33:36;8.90;78.50
15394;DHT22;7795;47.986;11.868;2023-04-15T01:36:03;8.90;78.50
15394;DHT22;7795;47.986;11.868;2023-04-15T01:38:30;8.90;78.50
15394;DHT22;7795;47.986;11.868;2023-04-15T01:40:56;8.90;78.50
15394;DHT22;7795;47.986;11.868;2023-04-15T01:43:25;8.90;78.50
15394;DHT22;7795;47.986;11.868;2023-04-15T01:45:51;8.90;78.60
15394;DHT22;7795;47.986;11.868;2023-04-15T01:48:17;8.90;78.60
15394;DHT22;7795;47.986;11.868;2023-04-15T01:50:44;8.90;78.70
15394;DHT22;7795;47.986;11.868;2023-04-15T01:53:10;8.90;78.70
15394;DHT22;7795;47.986;11.868;2023-04-15T01:55:35;8.90;79.40
15394;DHT22;7795;47.986;11.868;2023-04-15T01:58:01;8.90;78.70
15394;DHT22;7795;47.986;11.868;2023-04-15T02:00:28;8.90;78.70
15394;DHT22;7795;47.986;11.868;2023-04-15T02:02:55;8.90;78.70
15394;DHT22;7795;47.986;11.868;2023-04-15T02:05:20;8.90;79.50
15394;DHT22;7795;47.986;11.868;2023-04-15T02:07:47;8.90;78.80
15394;DHT22;7795;47.986;11.868;2023-04-15T02:10:13;8.90;78.80
15394;DHT22;7795;47.986;11.868;2023-04-15T02:12:38;8.80;78.80
15394;DHT22;7795;47.986;11.868;2023-04-15T02:15:06;8.90;78.90
15394;DHT22;7795;47.986;11.868;2023-04-15T02:17:35;8.80;78.90
15394;DHT22;7795;47.986;11.868;2023-04-15T02:20:01;8.80;78.90
15394;DHT22;7795;47.986;11.868;2023-04-15T02:22:27;8.80;78.80
15394;DHT22;7795;47.986;11.868;2023-04-15T02:24:54;8.80;78.80
15394;DHT22;7795;47.986;11.868;2023-04-15T02:27:20;8.80;78.80
15394;DHT22;7795;47.986;11.868;2023-04-15T02:29:47;8.80;79.70
15394;DHT22;7795;47.986;11.868;2023-04-15T02:32:13;8.80;78.90
15394;DHT22;7795;47.986;11.868;2023-04-15T02:34:40;8.80;79.00
15394;DHT22;7795;47.986;11.868;2023-04-15T02:37:07;8.80;79.10
15394;DHT22;7795;47.986;11.868;2023-04-15T02:39:33;8.80;79.10
15394;DHT22;7795;47.986;11.868;2023-04-15T02:41:59;8.80;79.10
15394;DHT22;7795;47.986;11.868;2023-04-15T02:44:25;8.70;79.00
15394;DHT22;7795;47.986;11.868;2023-04-15T02:46:51;8.80;79.00
15394;DHT22;7795;47.986;11.868;2023-04-15T02:49:19;8.70;78.90
15394;DHT22;7795;47.986;11.868;2023-04-15T02:51:46;8.70;79.70
15394;DHT22;7795;47.986;11.868;2023-04-15T02:54:14;8.80;79.00
15394;DHT22;7795;47.986;11.868;2023-04-15T02:56:40;8.80;78.90
15394;DHT22;7795;47.986;11.868;2023-04-15T02:59:05;8.80;78.90
15394;DHT22;7795;47.986;11.868;2023-04-15T03:01:31;8.70;78.90
15394;DHT22;7795;47.986;11.868;2023-04-15T03:03:57;8.80;79.00
15394;DHT22;7795;47.986;11.868;2023-04-15T03:06:23;8.80;79.00
15394;DHT22;7795;47.986;11.868;2023-04-15T03:08:50;8.80;79.10
15394;DHT22;7795;47.986;11.868;2023-04-15T03:11:16;8.80;79.10
15394;DHT22;7795;47.986;11.868;2023-04-15T03:13:43;8.80;78.90
15394;DHT22;7795;47.986;11.868;2023-04-15T03:16:09;8.80;78.90
15394;DHT22;7795;47.986;11.868;2023-04-15T03:18:35;8.90;78.90
15394;DHT22;7795;47.986;11.868;2023-04-15T03:21:00;8.90;78.90
15394;DHT22;7795;47.986;11.868;2023-04-15T03:23:27;8.90;78.90
15394;DHT22;7795;47.986;11.868;2023-04-15T03:25:54;8.90;78.90
15394;DHT22;7795;47.986;11.868;2023-04-15T03:28:22;8.90;79.00
15394;DHT22;7795;47.986;11.868;2023-04-15T03:30:47;8.90;78.90
15394;DHT22;7795;47.986;11.868;2023-04-15T03:33:13;8.90;78.90
15394;DHT22;7795;47.986;11.868;2023-04-15T03:35:39;8.90;78.90
15394;DHT22;7795;47.986;11.868;2023-04-15T03:38:05;8.90;78.90
15394;DHT22;7795;47.986;11.868;2023-04-15T03:40:31;8.90;78.80
15394;DHT22;7795;47.986;11.868;2023-04-15T03:42:58;8.90;78.80
15394;DHT22;7795;47.986;11.868;2023-04-15T03:45:24;8.90;78.80
15394;DHT22;7795;47.986;11.868;2023-04-15T03:47:49;8.90;78.70
15394;DHT22;7795;47.986;11.868;2023-04-15T03:50:16;8.90;78.80
15394;DHT22;7795;47.986;11.868;2023-04-15T03:52:41;8.90;78.70
15394;DHT22;7795;47.986;11.868;2023-04-15T03:55:08;8.90;78.80
15394;DHT22;7795;47.986;11.868;2023-04-15T03:57:34;8.90;78.80
15394;DHT22;7795;47.986;11.868;2023-04-15T04:00:06;8.90;78.90
15394;DHT22;7795;47.986;11.868;2023-04-15T04:02:32;8.90;78.90
15394;DHT22;7795;47.986;11.868;2023-04-15T04:04:58;8.90;78.90
15394;DHT22;7795;47.986;11.868;2023-04-15T04:07:23;8.90;79.00
15394;DHT22;7795;47.986;11.868;2023-04-15T04:09:49;8.90;79.10
15394;DHT22;7795;47.986;11.868;2023-04-15T04:12:16;8.90;79.10
15394;DHT22;7795;47.986;11.868;2023-04-15T04:14:41;8.90;79.00
15394;DHT22;7795;47.986;11.868;2023-04-15T04:17:08;8.90;79.00
15394;DHT22;7795;47.986;11.868;2023-04-15T04:19:35;8.90;79.10
15394;DHT22;7795;47.986;11.868;2023-04-15T04:22:00;8.90;79.10
15394;DHT22;7795;47.986;11.868;2023-04-15T04:24:26;8.90;79.10
15394;DHT22;7795;47.986;11.868;2023-04-15T04:26:52;8.90;79.10
15394;DHT22;7795;47.986;11.868;2023-04-15T04:29:18;8.90;79.00
15394;DHT22;7795;47.986;11.868;2023-04-15T04:31:44;8.90;79.10
15394;DHT22;7795;47.986;11.868;2023-04-15T04:34:11;8.90;79.00
15394;DHT22;7795;47.986;11.868;2023-04-15T04:36:37;8.90;79.10
15394;DHT22;7795;47.986;11.868;2023-04-15T04:39:03;8.90;79.10
15394;DHT22;7795;47.986;11.868;2023-04-15T04:41:28;8.90;79.10
15394;DHT22;7795;47.986;11.868;2023-04-15T04:43:54;8.90;79.10
15394;DHT22;7795;47.986;11.868;2023-04-15T04:46:20;8.90;79.10
15394;DHT22;7795;47.986;11.868;2023-04-15T04:48:46;8.90;79.10
15394;DHT22;7795;47.986;11.868;2023-04-15T04:51:13;8.90;79.10
15394;DHT22;7795;47.986;11.868;2023-04-15T04:53:39;8.90;79.10
15394;DHT22;7795;47.986;11.868;2023-04-15T04:56:05;8.90;79.00
15394;DHT22;7795;47.986;11.868;2023-04-15T04:58:31;8.90;79.00
15394;DHT22;7795;47.986;11.868;2023-04-15T05:00:56;8.90;79.10
15394;DHT22;7795;47.986;11.868;2023-04-15T05:03:23;8.90;79.00
15394;DHT22;7795;47.986;11.868;2023-04-15T05:05:48;9.00;79.10
15394;DHT22;7795;47.986;11.868;2023-04-15T05:08:15;8.90;78.90
15394;DHT22;7795;47.986;11.868;2023-04-15T05:10:41;8.90;79.00
15394;DHT22;7795;47.986;11.868;2023-04-15T05:13:07;9.00;79.00
15394;DHT22;7795;47.986;11.868;2023-04-15T05:15:33;8.90;78.90
15394;DHT22;7795;47.986;11.868;2023-04-15T05:18:01;8.90;78.90
15394;DHT22;7795;47.986;11.868;2023-04-15T05:20:27;9.00;78.80
15394;DHT22;7795;47.986;11.868;2023-04-15T05:22:53;8.90;78.70
15394;DHT22;7795;47.986;11.868;2023-04-15T05:25:20;9.00;78.80
15394;DHT22;7795;47.986;11.868;2023-04-15T05:27:45;8.90;78.70
15394;DHT22;7795;47.986;11.868;2023-04-15T05:30:11;9.00;78.80
15394;DHT22;7795;47.986;11.868;2023-04-15T05:32:37;8.90;78.80
15394;DHT22;7795;47.986;11.868;2023-04-15T05:35:03;8.90;78.80
15394;DHT22;7795;47.986;11.868;2023-04-15T05:37:30;8.90;78.80
15394;DHT22;7795;47.986;11.868;2023-04-15T05:39:55;8.90;78.80
15394;DHT22;7795;47.986;11.868;2023-04-15T05:42:22;8.90;78.80
15394;DHT22;7795;47.986;11.868;2023-04-15T05:44:48;9.00;78.90
15394;DHT22;7795;47.986;11.868;2023-04-15T05:47:14;9.00;78.90
15394;DHT22;7795;47.986;11.868;2023-04-15T05:49:40;9.00;78.90
15394;DHT22;7795;47.986;11.868;2023-04-15T05:52:06;9.00;78.90
15394;DHT22;7795;47.986;11.868;2023-04-15T05:54:31;9.00;78.80
15394;DHT22;7795;47.986;11.868;2023-04-15T05:56:57;9.10;78.80
15394;DHT22;7795;47.986;11.868;2023-04-15T05:59:24;9.10;78.60
15394;DHT22;7795;47.986;11.868;2023-04-15T06:01:50;9.10;78.50
15394;DHT22;7795;47.986;11.868;2023-04-15T06:04:16;9.10;78.40
15394;DHT22;7795;47.986;11.868;2023-04-15T06:06:42;9.10;78.40
15394;DHT22;7795;47.986;11.868;2023-04-15T06:09:08;9.10;78.20
15394;DHT22;7795;47.986;11.868;2023-04-15T06:11:34;9.10;78.30
15394;DHT22;7795;47.986;11.868;2023-04-15T06:14:00;9.20;78.30
15394;DHT22;7795;47.986;11.868;2023-04-15T06:16:27;9.20;78.20
15394;DHT22;7795;47.986;11.868;2023-04-15T06:18:53;9.20;78.10
15394;DHT22;7795;47.986;11.868;2023-04-15T06:21:18;9.20;77.90
15394;DHT22;7795;47.986;11.868;2023-04-15T06:23:44;9.30;77.90
15394;DHT22;7795;47.986;11.868;2023-04-15T06:26:10;9.20;77.80
15394;DHT22;7795;47.986;11.868;2023-04-15T06:28:36;9.30;77.90
15394;DHT22;7795;47.986;11.868;2023-04-15T06:31:02;9.30;77.90
15394;DHT22;7795;47.986;11.868;2023-04-15T06:33:30;9.30;77.90
15394;DHT22;7795;47.986;11.868;2023-04-15T06:35:56;9.40;77.90
15394;DHT22;7795;47.986;11.868;2023-04-15T06:38:22;9.40;77.70
15394;DHT22;7795;47.986;11.868;2023-04-15T06:40:48;9.40;77.60
15394;DHT22;7795;47.986;11.868;2023-04-15T06:43:13;9.40;77.40
15394;DHT22;7795;47.986;11.868;2023-04-15T06:45:39;9.40;77.30
15394;DHT22;7795;47.986;11.868;2023-04-15T06:48:05;9.50;77.40
15394;DHT22;7795;47.986;11.868;2023-04-15T06:50:33;9.50;77.30
15394;DHT22;7795;47.986;11.868;2023-04-15T06:53:00;9.50;77.30
15394;DHT22;7795;47.986;11.868;2023-04-15T06:55:26;9.60;77.30
15394;DHT22;7795;47.986;11.868;2023-04-15T06:57:52;9.60;77.20
15394;DHT22;7795;47.986;11.868;2023-04-15T07:00:18;9.60;77.10
15394;DHT22;7795;47.986;11.868;2023-04-15T07:02:44;9.60;77.20
15394;DHT22;7795;47.986;11.868;2023-04-15T07:05:11;9.60;77.20
15394;DHT22;7795;47.986;11.868;2023-04-15T07:07:38;9.70;77.20
15394;DHT22;7795;47.986;11.868;2023-04-15T07:10:05;9.70;77.90
15394;DHT22;7795;47.986;11.868;2023-04-15T07:12:31;9.70;77.30
15394;DHT22;7795;47.986;11.868;2023-04-15T07:14:57;9.80;77.30
15394;DHT22;7795;47.986;11.868;2023-04-15T07:17:23;9.80;77.10
15394;DHT22;7795;47.986;11.868;2023-04-15T07:19:48;9.90;77.00
15394;DHT22;7795;47.986;11.868;2023-04-15T07:22:14;9.90;76.80
15394;DHT22;7795;47.986;11.868;2023-04-15T07:24:41;10.00;76.70
15394;DHT22;7795;47.986;11.868;2023-04-15T07:27:07;10.00;76.50
15394;DHT22;7795;47.986;11.868;2023-04-15T07:29:33;10.00;76.50
15394;DHT22;7795;47.986;11.868;2023-04-15T07:31:59;10.10;76.50
15394;DHT22;7795;47.986;11.868;2023-04-15T07:34:24;10.10;76.50
15394;DHT22;7795;47.986;11.868;2023-04-15T07:36:50;10.20;76.70
15394;DHT22;7795;47.986;11.868;2023-04-15T07:39:16;10.20;76.60
15394;DHT22;7795;47.986;11.868;2023-04-15T07:41:43;10.30;76.40
15394;DHT22;7795;47.986;11.868;2023-04-15T07:44:09;10.30;76.30
15394;DHT22;7795;47.986;11.868;2023-04-15T07:46:36;10.40;76.40
15394;DHT22;7795;47.986;11.868;2023-04-15T07:49:02;10.40;76.10
15394;DHT22;7795;47.986;11.868;2023-04-15T07:51:28;10.50;75.80
15394;DHT22;7795;47.986;11.868;2023-04-15T07:53:55;10.50;75.60
15394;DHT22;7795;47.986;11.868;2023-04-15T07:56:20;10.50;75.40
15394;DHT22;7795;47.986;11.868;2023-04-15T07:58:47;10.60;75.30
15394;DHT22;7795;47.986;11.868;2023-04-15T08:01:13;10.60;75.20
15394;DHT22;7795;47.986;11.868;2023-04-15T08:03:39;10.70;75.40
15394;DHT22;7795;47.986;11.868;2023-04-15T08:06:05;10.70;75.40
15394;DHT22;7795;47.986;11.868;2023-04-15T08:08:31;10.70;75.30
15394;DHT22;7795;47.986;11.868;2023-04-15T08:10:57;10.80;75.30
15394;DHT22;7795;47.986;11.868;2023-04-15T08:13:23;10.80;75.10
15394;DHT22;7795;47.986;11.868;2023-04-15T08:15:56;10.90;75.80
15394;DHT22;7795;47.986;11.868;2023-04-15T08:18:37;10.90;74.80
15394;DHT22;7795;47.986;11.868;2023-04-15T08:21:03;10.90;75.00
15394;DHT22;7795;47.986;11.868;2023-04-15T08:23:30;11.00;74.90
15394;DHT22;7795;47.986;11.868;2023-04-15T08:25:57;11.00;74.70
15394;DHT22;7795;47.986;11.868;2023-04-15T08:28:23;11.10;74.60
15394;DHT22;7795;47.986;11.868;2023-04-15T08:30:48;11.10;74.50
15394;DHT22;7795;47.986;11.868;2023-04-15T08:33:16;11.10;74.50
15394;DHT22;7795;47.986;11.868;2023-04-15T08:35:42;11.20;74.40
15394;DHT22;7795;47.986;11.868;2023-04-15T08:38:08;11.20;74.30
15394;DHT22;7795;47.986;11.868;2023-04-15T08:40:39;11.30;74.30
15394;DHT22;7795;47.986;11.868;2023-04-15T08:43:06;11.30;73.90
15394;DHT22;7795;47.986;11.868;2023-04-15T08:45:34;11.30;74.20
15394;DHT22;7795;47.986;11.868;2023-04-15T08:48:04;11.40;74.30
15394;DHT22;7795;47.986;11.868;2023-04-15T08:50:32;11.50;74.20
15394;DHT22;7795;47.986;11.868;2023-04-15T08:52:58;11.60;74.10
15394;DHT22;7795;47.986;11.868;2023-04-15T08:55:26;11.60;73.80
15394;DHT22;7795;47.986;11.868;2023-04-15T08:57:53;11.70;73.70
15394;DHT22;7795;47.986;11.868;2023-04-15T09:00:19;11.70;73.60
15394;DHT22;7795;47.986;11.868;2023-04-15T09:02:45;11.80;73.30
15394;DHT22;7795;47.986;11.868;2023-04-15T09:05:11;11.90;73.20
15394;DHT22;7795;47.986;11.868;2023-04-15T09:07:38;11.90;73.00
15394;DHT22;7795;47.986;11.868;2023-04-15T09:10:04;12.00;72.70
15394;DHT22;7795;47.986;11.868;2023-04-15T09:12:33;12.00;72.50
15394;DHT22;7795;47.986;11.868;2023-04-15T09:14:59;12.10;72.30
15394;DHT22;7795;47.986;11.868;2023-04-15T09:17:25;12.20;72.50
15394;DHT22;7795;47.986;11.868;2023-04-15T09:20:07;12.20;72.20
15394;DHT22;7795;47.986;11.868;2023-04-15T09:22:33;12.20;71.40
15394;DHT22;7795;47.986;11.868;2023-04-15T09:25:00;12.30;72.00
15394;DHT22;7795;47.986;11.868;2023-04-15T09:27:26;12.30;71.70
15394;DHT22;7795;47.986;11.868;2023-04-15T09:29:52;12.30;71.80
15394;DHT22;7795;47.986;11.868;2023-04-15T09:32:18;12.30;71.70
15394;DHT22;7795;47.986;11.868;2023-04-15T09:34:45;12.40;71.90
15394;DHT22;7795;47.986;11.868;2023-04-15T09:37:12;12.40;71.80
15394;DHT22;7795;47.986;11.868;2023-04-15T09:39:48;12.40;71.90
15394;DHT22;7795;47.986;11.868;2023-04-15T09:42:16;12.50;71.30
15394;DHT22;7795;47.986;11.868;2023-04-15T09:44:48;12.50;71.40
15394;DHT22;7795;47.986;11.868;2023-04-15T09:47:27;12.60;71.50
15394;DHT22;7795;47.986;11.868;2023-04-15T09:49:56;12.60;70.80
15394;DHT22;7795;47.986;11.868;2023-04-15T09:52:22;12.60;71.10
15394;DHT22;7795;47.986;11.868;2023-04-15T09:54:52;12.60;71.20
15394;DHT22;7795;47.986;11.868;2023-04-15T09:57:20;12.70;70.70
15394;DHT22;7795;47.986;11.868;2023-04-15T09:59:46;12.70;70.70
15394;DHT22;7795;47.986;11.868;2023-04-15T10:02:12;12.70;70.80
15394;DHT22;7795;47.986;11.868;2023-04-15T10:04:39;12.80;70.60
15394;DHT22;7795;47.986;11.868;2023-04-15T10:07:07;12.80;70.10
15394;DHT22;7795;47.986;11.868;2023-04-15T10:09:34;12.80;69.60
15394;DHT22;7795;47.986;11.868;2023-04-15T10:12:01;12.80;69.40
15394;DHT22;7795;47.986;11.868;2023-04-15T10:14:32;12.80;69.40
15394;DHT22;7795;47.986;11.868;2023-04-15T10:17:00;12.70;69.20
15394;DHT22;7795;47.986;11.868;2023-04-15T10:19:26;12.70;69.20
15394;DHT22;7795;47.986;11.868;2023-04-15T10:21:55;12.70;69.30
15394;DHT22;7795;47.986;11.868;2023-04-15T10:24:22;12.70;69.20
15394;DHT22;7795;47.986;11.868;2023-04-15T10:26:49;12.70;69.00
15394;DHT22;7795;47.986;11.868;2023-04-15T10:29:16;12.70;68.90
15394;DHT22;7795;47.986;11.868;2023-04-15T10:31:43;12.70;68.80
15394;DHT22;7795;47.986;11.868;2023-04-15T10:34:09;12.70;68.70
15394;DHT22;7795;47.986;11.868;2023-04-15T10:36:35;12.70;68.70
15394;DHT22;7795;47.986;11.868;2023-04-15T10:39:01;12.70;68.60
15394;DHT22;7795;47.986;11.868;2023-04-15T10:41:27;12.60;68.60
15394;DHT22;7795;47.986;11.868;2023-04-15T10:44:00;12.60;68.60
15394;DHT22;7795;47.986;11.868;2023-04-15T10:46:35;12.60;68.70
15394;DHT22;7795;47.986;11.868;2023-04-15T10:49:10;12.60;68.90
15394;DHT22;7795;47.986;11.868;2023-04-15T10:51:37;12.50;68.90
15394;DHT22;7795;47.986;11.868;2023-04-15T10:54:08;12.50;70.00
15394;DHT22;7795;47.986;11.868;2023-04-15T10:56:37;12.50;69.30
15394;DHT22;7795;47.986;11.868;2023-04-15T10:59:05;12.50;69.40
15394;DHT22;7795;47.986;11.868;2023-04-15T11:01:50;12.40;69.50
15394;DHT22;7795;47.986;11.868;2023-04-15T11:04:53;12.50;69.20
15394;DHT22;7795;47.986;11.868;2023-04-15T11:07:35;12.50;69.20
15394;DHT22;7795;47.986;11.868;2023-04-15T11:10:01;12.50;69.00
15394;DHT22;7795;47.986;11.868;2023-04-15T11:12:33;12.50;69.60
15394;DHT22;7795;47.986;11.868;2023-04-15T11:15:27;12.50;69.20
15394;DHT22;7795;47.986;11.868;2023-04-15T11:17:57;12.60;69.40
15394;DHT22;7795;47.986;11.868;2023-04-15T11:20:24;12.60;69.80
15394;DHT22;7795;47.986;11.868;2023-04-15T11:22:51;12.60;69.60
15394;DHT22;7795;47.986;11.868;2023-04-15T11:25:23;12.70;69.40
15394;DHT22;7795;47.986;11.868;2023-04-15T11:27:50;12.70;69.00
15394;DHT22;7795;47.986;11.868;2023-04-15T11:30:18;12.80;69.30
15394;DHT22;7795;47.986;11.868;2023-04-15T11:32:46;12.80;69.10
15394;DHT22;7795;47.986;11.868;2023-04-15T11:35:11;12.80;69.20
15394;DHT22;7795;47.986;11.868;2023-04-15T11:37:38;12.80;69.30
15394;DHT22;7795;47.986;11.868;2023-04-15T11:40:06;12.90;69.20
15394;DHT22;7795;47.986;11.868;2023-04-15T11:42:32;12.90;69.20
15394;DHT22;7795;47.986;11.868;2023-04-15T11:45:05;12.90;69.20
15394;DHT22;7795;47.986;11.868;2023-04-15T11:47:32;13.00;68.70
15394;DHT22;7795;47.986;11.868;2023-04-15T11:50:13;13.00;69.00
15394;DHT22;7795;47.986;11.868;2023-04-15T11:52:40;13.10;68.40
15394;DHT22;7795;47.986;11.868;2023-04-15T11:55:07;13.10;68.40
15394;DHT22;7795;47.986;11.868;2023-04-15T11:57:34;13.10;67.90
15394;DHT22;7795;47.986;11.868;2023-04-15T12:00:00;13.10;67.60
15394;DHT22;7795;47.986;11.868;2023-04-15T12:02:29;13.10;67.40
15394;DHT22;7795;47.986;11.868;2023-04-15T12:05:02;13.20;66.90
15394;DHT22;7795;47.986;11.868;2023-04-15T12:07:28;13.20;66.70
15394;DHT22;7795;47.986;11.868;2023-04-15T12:09:56;13.20;67.00
15394;DHT22;7795;47.986;11.868;2023-04-15T12:12:26;13.20;66.90
15394;DHT22;7795;47.986;11.868;2023-04-15T12:14:52;13.20;65.70
15394;DHT22;7795;47.986;11.868;2023-04-15T12:17:17;13.10;66.30
15394;DHT22;7795;47.986;11.868;2023-04-15T12:19:46;13.10;66.30
15394;DHT22;7795;47.986;11.868;2023-04-15T12:22:14;13.10;66.40
15394;DHT22;7795;47.986;11.868;2023-04-15T12:24:42;13.10;66.40
15394;DHT22;7795;47.986;11.868;2023-04-15T12:27:15;13.00;66.10
15394;DHT22;7795;47.986;11.868;2023-04-15T12:30:06;13.00;66.00
15394;DHT22;7795;47.986;11.868;2023-04-15T12:32:34;13.00;65.70
15394;DHT22;7795;47.986;11.868;2023-04-15T12:35:00;12.90;66.30
15394;DHT22;7795;47.986;11.868;2023-04-15T12:37:26;12.90;66.60
15394;DHT22;7795;47.986;11.868;2023-04-15T12:39:52;12.90;66.80
15394;DHT22;7795;47.986;11.868;2023-04-15T12:42:20;12.90;66.90
15394;DHT22;7795;47.986;11.868;2023-04-15T12:44:47;12.90;67.00
15394;DHT22;7795;47.986;11.868;2023-04-15T12:47:13;12.90;67.10
15394;DHT22;7795;47.986;11.868;2023-04-15T12:49:39;12.90;67.10
15394;DHT22;7795;47.986;11.868;2023-04-15T12:52:05;12.90;67.10
15394;DHT22;7795;47.986;11.868;2023-04-15T12:54:31;12.90;67.30
15394;DHT22;7795;47.986;11.868;2023-04-15T12:56:57;12.90;67.30
15394;DHT22;7795;47.986;11.868;2023-04-15T12:59:25;12.90;67.20
15394;DHT22;7795;47.986;11.868;2023-04-15T13:01:51;12.90;66.90
15394;DHT22;7795;47.986;11.868;2023-04-15T13:04:18;12.90;67.00
15394;DHT22;7795;47.986;11.868;2023-04-15T13:06:44;12.90;67.00
15394;DHT22;7795;47.986;11.868;2023-04-15T13:09:10;13.00;67.10
15394;DHT22;7795;47.986;11.868;2023-04-15T13:11:36;12.90;67.00
15394;DHT22;7795;47.986;11.868;2023-04-15T13:14:03;12.90;66.90
15394;DHT22;7795;47.986;11.868;2023-04-15T13:16:30;13.00;67.00
15394;DHT22;7795;47.986;11.868;2023-04-15T13:18:56;13.00;67.00
15394;DHT22;7795;47.986;11.868;2023-04-15T13:21:22;13.00;66.90
15394;DHT22;7795;47.986;11.868;2023-04-15T13:23:48;13.00;66.60
15394;DHT22;7795;47.986;11.868;2023-04-15T13:26:14;13.00;66.60
15394;DHT22;7795;47.986;11.868;2023-04-15T13:28:40;13.00;66.60
15394;DHT22;7795;47.986;11.868;2023-04-15T13:31:06;13.00;66.70
15394;DHT22;7795;47.986;11.868;2023-04-15T13:33:33;13.00;66.80
15394;DHT22;7795;47.986;11.868;2023-04-15T13:35:59;13.00;67.10
15394;DHT22;7795;47.986;11.868;2023-04-15T13:38:25;13.00;67.40
15394;DHT22;7795;47.986;11.868;2023-04-15T13:40:51;13.00;67.30
15394;DHT22;7795;47.986;11.868;2023-04-15T13:43:17;13.00;67.10
15394;DHT22;7795;47.986;11.868;2023-04-15T13:45:42;13.00;67.00
15394;DHT22;7795;47.986;11.868;2023-04-15T13:48:08;13.10;67.00
15394;DHT22;7795;47.986;11.868;2023-04-15T13:50:35;13.10;66.70
15394;DHT22;7795;47.986;11.868;2023-04-15T13:53:01;13.10;66.60
15394;DHT22;7795;47.986;11.868;2023-04-15T13:55:27;13.10;66.80
15394;DHT22;7795;47.986;11.868;2023-04-15T13:57:53;13.10;66.80
15394;DHT22;7795;47.986;11.868;2023-04-15T14:00:18;13.10;66.70
15394;DHT22;7795;47.986;11.868;2023-04-15T14:02:44;13.10;66.80
15394;DHT22;7795;47.986;11.868;2023-04-15T14:05:10;13.10;66.70
15394;DHT22;7795;47.986;11.868;2023-04-15T14:07:38;13.10;66.60
15394;DHT22;7795;47.986;11.868;2023-04-15T14:10:04;13.00;67.20
15394;DHT22;7795;47.986;11.868;2023-04-15T14:12:30;13.00;66.40
15394;DHT22;7795;47.986;11.868;2023-04-15T14:14:56;13.00;66.60
15394;DHT22;7795;47.986;11.868;2023-04-15T14:17:21;13.00;66.50
15394;DHT22;7795;47.986;11.868;2023-04-15T14:19:47;13.00;66.40
15394;DHT22;7795;47.986;11.868;2023-04-15T14:22:13;13.00;66.20
15394;DHT22;7795;47.986;11.868;2023-04-15T14:24:40;13.00;66.20
15394;DHT22;7795;47.986;11.868;2023-04-15T14:27:06;13.00;66.10
15394;DHT22;7795;47.986;11.868;2023-04-15T14:29:33;13.00;65.90
15394;DHT22;7795;47.986;11.868;2023-04-15T14:31:59;13.00;65.70
15394;DHT22;7795;47.986;11.868;2023-04-15T14:34:25;12.90;65.10
15394;DHT22;7795;47.986;11.868;2023-04-15T14:36:51;12.90;65.20
15394;DHT22;7795;47.986;11.868;2023-04-15T14:39:18;12.80;65.20
15394;DHT22;7795;47.986;11.868;2023-04-15T14:41:45;12.80;65.30
15394;DHT22;7795;47.986;11.868;2023-04-15T14:44:11;12.80;65.00
15394;DHT22;7795;47.986;11.868;2023-04-15T14:46:37;12.70;65.10
15394;DHT22;7795;47.986;11.868;2023-04-15T14:49:03;12.70;65.30
15394;DHT22;7795;47.986;11.868;2023-04-15T14:51:28;12.60;65.30
15394;DHT22;7795;47.986;11.868;2023-04-15T14:53:54;12.60;65.40
15394;DHT22;7795;47.986;11.868;2023-04-15T14:56:20;12.60;65.10
15394;DHT22;7795;47.986;11.868;2023-04-15T14:58:47;12.50;65.10
15394;DHT22;7795;47.986;11.868;2023-04-15T15:01:14;12.50;65.10
15394;DHT22;7795;47.986;11.868;2023-04-15T15:03:39;12.50;65.20
15394;DHT22;7795;47.986;11.868;2023-04-15T15:06:05;12.40;65.30
15394;DHT22;7795;47.986;11.868;2023-04-15T15:08:31;12.40;65.20
15394;DHT22;7795;47.986;11.868;2023-04-15T15:10:57;12.40;65.00
15394;DHT22;7795;47.986;11.868;2023-04-15T15:13:23;12.40;65.00
15394;DHT22;7795;47.986;11.868;2023-04-15T15:15:51;12.40;65.00
15394;DHT22;7795;47.986;11.868;2023-04-15T15:18:17;12.30;64.80
15394;DHT22;7795;47.986;11.868;2023-04-15T15:20:46;12.30;64.70
15394;DHT22;7795;47.986;11.868;2023-04-15T15:23:12;12.30;64.80
15394;DHT22;7795;47.986;11.868;2023-04-15T15:25:37;12.30;64.70
15394;DHT22;7795;47.986;11.868;2023-04-15T15:28:03;12.30;64.70
15394;DHT22;7795;47.986;11.868;2023-04-15T15:30:30;12.30;64.70
15394;DHT22;7795;47.986;11.868;2023-04-15T15:32:57;12.30;64.80
15394;DHT22;7795;47.986;11.868;2023-04-15T15:35:22;12.40;65.40